Time;durP1;ratioP1;P1;durP2;ratioP2;P2;SDS_P1;SDS_P2;PMS_P1;PMS_P2;Temp;Humidity;BMP_temperature;BMP_pressure;BME280_temperature;BME280_humidity;BME280_pressure;Samples;Min_cycle;Max_cycle;Signal;HPM_P1;HPM_P2
2023/06/11 00:00:48;;;;;;;0.00;0.00;;;20.60;99.90;;;;;;5055026;28;20174;-73
2023/06/11 00:03:13;;;;;;;0.00;0.00;;;20.50;99.90;;;;;;5054833;28;20684;-72
2023/06/11 00:05:39;;;;;;;0.57;0.57;;;20.40;99.90;;;;;;5036653;28;20190;-72
2023/06/11 00:08:05;;;;;;;0.08;0.08;;;20.30;99.90;;;;;;5054715;28;20560;-71
2023/06/11 00:10:30;;;;;;;0.00;0.00;;;20.30;99.90;;;;;;5054616;28;20170;-72
2023/06/11 00:12:56;;;;;;;0.00;0.00;;;20.30;99.90;;;;;;5054629;28;20193;-72
2023/06/11 00:15:21;;;;;;;0.47;0.47;;;20.40;99.90;;;;;;5036882;28;20174;-71
2023/06/11 00:17:48;;;;;;;0.00;0.00;;;20.20;99.90;;;;;;5054060;28;20181;-71
2023/06/11 00:20:14;;;;;;;0.10;0.10;;;20.30;99.90;;;;;;5036620;28;20394;-72
2023/06/11 00:22:41;;;;;;;0.00;0.00;;;20.10;99.90;;;;;;5054801;28;20212;-71
2023/06/11 00:25:08;;;;;;;0.20;0.20;;;20.10;99.90;;;;;;5079614;23;20640;-69
2023/06/11 00:27:37;;;;;;;0.00;0.00;;;20.10;99.90;;;;;;5069548;28;20186;-67
2023/06/11 00:30:04;;;;;;;0.00;0.00;;;20.10;99.90;;;;;;5071659;28;20182;-68
2023/06/11 00:32:35;;;;;;;0.25;0.25;;;20.20;99.90;;;;;;5074087;28;20664;-68
2023/06/11 00:35:06;;;;;;;0.00;0.00;;;20.20;99.90;;;;;;5079062;28;20186;-69
2023/06/11 00:37:32;;;;;;;0.00;0.00;;;20.20;99.90;;;;;;5068701;28;20539;-68
2023/06/11 00:39:58;;;;;;;0.45;0.45;;;20.20;99.90;;;;;;5073907;28;20649;-68
2023/06/11 00:42:23;;;;;;;0.10;0.10;;;20.10;99.90;;;;;;5073658;28;20173;-68
2023/06/11 00:44:49;;;;;;;0.10;0.10;;;20.10;99.90;;;;;;5073538;28;20209;-68
2023/06/11 00:47:18;;;;;;;0.00;0.00;;;20.10;99.90;;;;;;5073642;28;20233;-68
2023/06/11 00:49:44;;;;;;;0.03;0.03;;;20.20;99.90;;;;;;5073460;28;20265;-69
2023/06/11 00:52:14;;;;;;;0.00;0.00;;;20.20;99.90;;;;;;5073822;28;20162;-68
2023/06/11 00:54:40;;;;;;;0.10;0.10;;;20.10;99.90;;;;;;5073033;28;20206;-68
2023/06/11 00:57:06;;;;;;;0.25;0.25;;;19.90;99.90;;;;;;5073253;28;20239;-68
2023/06/11 00:59:34;;;;;;;0.00;0.00;;;19.90;99.90;;;;;;5083254;28;20181;-69
2023/06/11 01:02:00;;;;;;;0.00;0.00;;;19.70;99.90;;;;;;5064771;28;20177;-68
2023/06/11 01:04:29;;;;;;;0.05;0.05;;;19.60;99.90;;;;;;5072997;28;20242;-69
2023/06/11 01:07:00;;;;;;;0.00;0.00;;;19.60;99.90;;;;;;5073241;28;20186;-68
2023/06/11 01:09:29;;;;;;;0.00;0.00;;;19.60;99.90;;;;;;5072006;28;20166;-69
2023/06/11 01:11:55;;;;;;;1.35;0.70;;;19.60;99.90;;;;;;5073204;28;20634;-67
2023/06/11 01:14:21;;;;;;;2.00;0.52;;;19.60;99.90;;;;;;5072929;28;20180;-68
2023/06/11 01:17:02;;;;;;;1.08;1.08;;;19.50;99.90;;;;;;5073194;28;20193;-68
2023/06/11 01:19:58;;;;;;;0.00;0.00;;;19.30;99.90;;;;;;5073302;28;20528;-68
2023/06/11 01:23:05;;;;;;;0.00;0.00;;;19.40;99.90;;;;;;5059917;28;20696;-69
2023/06/11 01:25:38;;;;;;;0.00;0.00;;;19.40;99.90;;;;;;5058033;28;20201;-68
2023/06/11 01:28:07;;;;;;;0.00;0.00;;;19.40;99.90;;;;;;5076583;28;20166;-69
2023/06/11 01:30:36;;;;;;;0.28;0.28;;;19.40;99.90;;;;;;5072510;28;20177;-68
2023/06/11 01:33:03;;;;;;;0.00;0.00;;;19.50;99.90;;;;;;5073033;28;20239;-68
2023/06/11 01:35:29;;;;;;;0.00;0.00;;;19.50;99.90;;;;;;5072434;28;20201;-68
2023/06/11 01:37:57;;;;;;;0.08;0.08;;;19.50;99.90;;;;;;5072865;28;20540;-69
2023/06/11 01:40:24;;;;;;;0.45;0.45;;;19.40;99.90;;;;;;5072707;28;20179;-69
2023/06/11 01:42:50;;;;;;;0.00;0.00;;;19.40;99.90;;;;;;5073148;28;20185;-68
2023/06/11 01:45:18;;;;;;;0.05;0.05;;;19.40;99.90;;;;;;5072272;28;20197;-69
2023/06/11 01:47:48;;;;;;;0.00;0.00;;;19.40;99.90;;;;;;5074852;28;20178;-68
2023/06/11 01:50:14;;;;;;;0.10;0.10;;;19.40;99.90;;;;;;5072884;28;20177;-68
2023/06/11 01:52:41;;;;;;;0.00;0.00;;;19.40;99.90;;;;;;5072735;28;20170;-68
2023/06/11 01:55:08;;;;;;;0.00;0.00;;;19.30;99.90;;;;;;5072253;28;20249;-68
2023/06/11 01:57:34;;;;;;;0.00;0.00;;;19.20;99.90;;;;;;5072486;28;20284;-67
2023/06/11 02:00:00;;;;;;;0.00;0.00;;;19.10;99.90;;;;;;5072118;28;20189;-68
2023/06/11 02:02:27;;;;;;;0.00;0.00;;;19.10;99.90;;;;;;5072296;28;20188;-69
2023/06/11 02:04:53;;;;;;;0.00;0.00;;;19.10;99.90;;;;;;5072032;28;20202;-69
2023/06/11 02:07:18;;;;;;;0.00;0.00;;;18.90;99.90;;;;;;5072349;28;20208;-68
2023/06/11 02:09:44;;;;;;;0.03;0.03;;;19.00;99.90;;;;;;5072065;28;20172;-69
2023/06/11 02:12:09;;;;;;;0.00;0.00;;;19.00;99.90;;;;;;5072158;28;20257;-68
2023/06/11 02:14:35;;;;;;;0.00;0.00;;;19.10;99.90;;;;;;5070505;28;20219;-69
2023/06/11 02:17:01;;;;;;;0.63;0.63;;;19.00;99.90;;;;;;5072098;28;20657;-67
2023/06/11 02:19:27;;;;;;;0.00;0.00;;;19.10;99.90;;;;;;5070811;28;20647;-67
2023/06/11 02:21:53;;;;;;;0.00;0.00;;;19.00;99.90;;;;;;5071753;28;20178;-68
2023/06/11 02:24:18;;;;;;;0.47;0.20;;;18.90;99.90;;;;;;5071670;28;20197;-69
2023/06/11 02:26:44;;;;;;;0.00;0.00;;;19.00;99.90;;;;;;5071816;28;20209;-68
2023/06/11 02:29:09;;;;;;;0.00;0.00;;;19.00;99.90;;;;;;5071689;28;20251;-69
2023/06/11 02:31:35;;;;;;;0.00;0.00;;;19.00;99.90;;;;;;5070539;28;20719;-67
2023/06/11 02:34:00;;;;;;;0.00;0.00;;;19.10;99.90;;;;;;5073860;28;20169;-68
2023/06/11 02:36:26;;;;;;;0.00;0.00;;;19.10;99.90;;;;;;5071561;28;20193;-67
2023/06/11 02:38:51;;;;;;;0.13;0.13;;;19.20;99.90;;;;;;5071994;28;20184;-68
2023/06/11 02:41:17;;;;;;;0.00;0.00;;;19.20;99.90;;;;;;5071987;28;20173;-67
2023/06/11 02:43:42;;;;;;;0.40;0.40;;;19.20;99.90;;;;;;5071309;28;20236;-68
2023/06/11 02:46:08;;;;;;;0.05;0.05;;;19.20;99.90;;;;;;5071538;28;20585;-69
2023/06/11 02:48:33;;;;;;;0.00;0.00;;;19.10;99.90;;;;;;5071432;28;20204;-70
2023/06/11 02:50:59;;;;;;;0.00;0.00;;;19.10;99.90;;;;;;5071719;28;20197;-69
2023/06/11 02:53:25;;;;;;;0.00;0.00;;;19.10;99.90;;;;;;5071480;28;20177;-69
2023/06/11 02:55:50;;;;;;;0.08;0.08;;;19.10;99.90;;;;;;5071502;28;20866;-69
2023/06/11 02:58:16;;;;;;;0.00;0.00;;;19.10;99.90;;;;;;5071438;28;20642;-69
2023/06/11 03:00:41;;;;;;;0.00;0.00;;;19.10;99.90;;;;;;5071797;28;20209;-67
2023/06/11 03:03:07;;;;;;;0.20;0.20;;;19.10;99.90;;;;;;5071787;28;20542;-68
2023/06/11 03:05:32;;;;;;;0.00;0.00;;;19.10;99.90;;;;;;5071146;28;20275;-69
2023/06/11 03:07:58;;;;;;;0.00;0.00;;;19.10;99.90;;;;;;5071568;28;20652;-69
2023/06/11 03:10:27;;;;;;;0.00;0.00;;;19.10;99.90;;;;;;5070248;28;20642;-69
2023/06/11 03:12:54;;;;;;;0.10;0.10;;;19.10;99.90;;;;;;5071475;28;20544;-68
2023/06/11 03:15:19;;;;;;;0.00;0.00;;;19.00;99.90;;;;;;5071298;28;20189;-68
2023/06/11 03:17:45;;;;;;;0.10;0.10;;;19.00;99.90;;;;;;5071323;28;20178;-68
2023/06/11 03:20:11;;;;;;;1.95;1.20;;;19.00;99.90;;;;;;5069545;28;20534;-67
2023/06/11 03:22:37;;;;;;;0.00;0.00;;;19.00;99.90;;;;;;5070669;28;20174;-68
2023/06/11 03:25:03;;;;;;;0.00;0.00;;;19.00;99.90;;;;;;5071237;28;20221;-67
2023/06/11 03:27:28;;;;;;;0.32;0.32;;;19.00;99.90;;;;;;5071887;28;20666;-68
2023/06/11 03:29:54;;;;;;;0.00;0.00;;;19.00;99.90;;;;;;5061226;28;20197;-69
2023/06/11 03:32:19;;;;;;;0.00;0.00;;;19.00;99.90;;;;;;5068732;28;20178;-68
2023/06/11 03:34:45;;;;;;;3.40;0.65;;;19.00;99.90;;;;;;5074883;28;20181;-68
2023/06/11 03:37:11;;;;;;;0.00;0.00;;;18.90;99.90;;;;;;5074860;28;20193;-68
2023/06/11 03:39:36;;;;;;;1.20;0.52;;;18.90;99.90;;;;;;5074669;28;20174;-69
2023/06/11 03:42:02;;;;;;;0.00;0.00;;;18.90;99.90;;;;;;5065740;28;20706;-68
2023/06/11 03:44:27;;;;;;;0.00;0.00;;;18.90;99.90;;;;;;5074626;28;20761;-69
2023/06/11 03:46:53;;;;;;;0.00;0.00;;;19.00;99.90;;;;;;5074345;28;20535;-68
2023/06/11 03:49:18;;;;;;;0.00;0.00;;;19.00;99.90;;;;;;5075035;28;20219;-68
2023/06/11 03:51:44;;;;;;;0.05;0.05;;;19.10;99.90;;;;;;5073268;28;20703;-68
2023/06/11 03:54:10;;;;;;;0.30;0.30;;;19.00;99.90;;;;;;5074360;28;20178;-69
2023/06/11 03:56:35;;;;;;;0.00;0.00;;;19.00;99.90;;;;;;5074484;28;20551;-69
2023/06/11 03:59:01;;;;;;;0.00;0.00;;;19.00;99.90;;;;;;5074535;28;20211;-68
2023/06/11 04:01:27;;;;;;;0.00;0.00;;;19.00;99.90;;;;;;5074486;28;20185;-68
2023/06/11 04:03:52;;;;;;;0.05;0.05;;;19.00;99.90;;;;;;5074263;28;20208;-69
2023/06/11 04:06:18;;;;;;;0.08;0.08;;;19.10;99.90;;;;;;5074402;28;20197;-68
2023/06/11 04:08:44;;;;;;;0.20;0.20;;;19.10;99.90;;;;;;5074300;28;20177;-68
2023/06/11 04:11:09;;;;;;;0.00;0.00;;;19.10;99.90;;;;;;5074288;28;20174;-67
2023/06/11 04:13:35;;;;;;;0.00;0.00;;;19.10;99.90;;;;;;5074082;28;20208;-67
2023/06/11 04:16:01;;;;;;;0.00;0.00;;;19.10;99.90;;;;;;5073787;28;20209;-67
2023/06/11 04:18:27;;;;;;;0.00;0.00;;;19.10;99.90;;;;;;5074171;28;20186;-68
2023/06/11 04:20:53;;;;;;;0.00;0.00;;;19.10;99.90;;;;;;5073788;28;20185;-69
2023/06/11 04:23:18;;;;;;;0.00;0.00;;;19.10;99.90;;;;;;5073831;28;20521;-69
2023/06/11 04:25:44;;;;;;;0.15;0.15;;;19.10;99.90;;;;;;5073304;28;20216;-68
2023/06/11 04:28:10;;;;;;;0.00;0.00;;;19.20;99.90;;;;;;5074064;28;20223;-67
2023/06/11 04:30:36;;;;;;;0.40;0.40;;;19.20;99.90;;;;;;5073728;28;20646;-67
2023/06/11 04:33:03;;;;;;;0.00;0.00;;;19.20;99.90;;;;;;5073773;28;20264;-68
2023/06/11 04:35:29;;;;;;;0.00;0.00;;;19.20;99.90;;;;;;5073272;28;20174;-69
2023/06/11 04:37:55;;;;;;;0.20;0.20;;;19.30;99.90;;;;;;5073765;28;20256;-68
2023/06/11 04:40:23;;;;;;;0.00;0.00;;;19.20;99.90;;;;;;5073590;28;20170;-68
2023/06/11 04:42:49;;;;;;;0.00;0.00;;;19.30;99.90;;;;;;5073788;28;20196;-68
2023/06/11 04:45:18;;;;;;;0.00;0.00;;;19.40;99.90;;;;;;5072853;28;20198;-67
2023/06/11 04:47:45;;;;;;;0.10;0.10;;;19.50;99.90;;;;;;5081818;28;20168;-68
2023/06/11 04:50:11;;;;;;;0.00;0.00;;;19.70;99.90;;;;;;5077610;28;20524;-69
2023/06/11 04:52:38;;;;;;;0.05;0.05;;;20.10;99.90;;;;;;5073455;28;20170;-68
2023/06/11 04:55:05;;;;;;;1.77;0.85;;;20.80;99.90;;;;;;5073258;28;20665;-68
2023/06/11 04:57:32;;;;;;;0.00;0.00;;;21.60;99.90;;;;;;5072971;28;20615;-67
2023/06/11 04:59:59;;;;;;;0.00;0.00;;;22.20;99.90;;;;;;5073200;28;20536;-68
2023/06/11 05:02:25;;;;;;;0.00;0.00;;;22.70;99.90;;;;;;5073422;28;20534;-67
2023/06/11 05:04:53;;;;;;;0.00;0.00;;;22.70;99.90;;;;;;5072870;28;20225;-67
2023/06/11 05:07:21;;;;;;;0.00;0.00;;;22.80;99.90;;;;;;5073290;28;20185;-68
2023/06/11 05:09:47;;;;;;;0.05;0.05;;;23.00;99.90;;;;;;5072944;28;20197;-67
2023/06/11 05:12:12;;;;;;;0.10;0.10;;;23.10;99.90;;;;;;5073342;28;20579;-68
2023/06/11 05:14:38;;;;;;;0.15;0.15;;;22.20;99.90;;;;;;5072515;28;20170;-68
2023/06/11 05:17:04;;;;;;;0.20;0.15;;;21.30;99.90;;;;;;5073091;28;20280;-68
2023/06/11 05:19:30;;;;;;;0.75;0.63;;;21.00;99.90;;;;;;5072857;28;20205;-68
2023/06/11 05:21:55;;;;;;;0.00;0.00;;;20.90;99.90;;;;;;5072809;28;20216;-68
2023/06/11 05:24:21;;;;;;;0.00;0.00;;;21.20;99.90;;;;;;5072522;28;20242;-66
2023/06/11 05:26:47;;;;;;;0.00;0.00;;;21.40;99.90;;;;;;5072747;28;20213;-68
2023/06/11 05:29:12;;;;;;;0.17;0.17;;;21.40;99.90;;;;;;5072649;28;20184;-69
2023/06/11 05:31:41;;;;;;;0.05;0.05;;;21.50;99.90;;;;;;5072615;28;20585;-69
2023/06/11 05:34:06;;;;;;;0.00;0.00;;;21.30;99.90;;;;;;5072508;28;20177;-69
2023/06/11 05:36:32;;;;;;;0.00;0.00;;;21.40;99.90;;;;;;5072478;28;20198;-69
2023/06/11 05:38:58;;;;;;;0.32;0.32;;;21.40;99.90;;;;;;5072600;28;20178;-68
2023/06/11 05:41:23;;;;;;;0.10;0.10;;;21.30;99.90;;;;;;5072688;28;20177;-69
2023/06/11 05:43:49;;;;;;;0.45;0.45;;;21.30;99.90;;;;;;5072140;28;20202;-68
2023/06/11 05:46:15;;;;;;;0.00;0.00;;;21.40;99.90;;;;;;5072539;28;20186;-69
2023/06/11 05:48:43;;;;;;;0.30;0.30;;;21.50;99.90;;;;;;5072466;28;20638;-69
2023/06/11 05:51:09;;;;;;;0.65;0.65;;;21.30;99.90;;;;;;5072237;28;20168;-70
2023/06/11 05:53:35;;;;;;;0.00;0.00;;;21.50;99.90;;;;;;5072227;28;20197;-69
2023/06/11 05:56:03;;;;;;;0.00;0.00;;;21.40;99.90;;;;;;5071961;28;20217;-68
2023/06/11 05:58:32;;;;;;;0.45;0.45;;;21.40;99.90;;;;;;5072007;28;20286;-71
2023/06/11 06:01:02;;;;;;;0.47;0.47;;;21.50;99.90;;;;;;5072348;28;20261;-70
2023/06/11 06:03:29;;;;;;;0.20;0.20;;;21.40;99.90;;;;;;5077055;28;20252;-68
2023/06/11 06:05:55;;;;;;;0.22;0.22;;;21.60;99.90;;;;;;5072064;28;20193;-68
2023/06/11 06:08:20;;;;;;;0.10;0.10;;;21.50;99.90;;;;;;5072361;28;20790;-68
2023/06/11 06:10:46;;;;;;;0.00;0.00;;;21.50;99.90;;;;;;5072007;28;20173;-68
2023/06/11 06:13:11;;;;;;;0.00;0.00;;;21.50;99.90;;;;;;5071925;28;20684;-69
2023/06/11 06:15:37;;;;;;;0.00;0.00;;;21.40;99.90;;;;;;5071480;28;20229;-68
2023/06/11 06:18:05;;;;;;;0.08;0.08;;;21.50;99.90;;;;;;5077746;28;20212;-69
2023/06/11 06:20:30;;;;;;;0.00;0.00;;;21.80;99.90;;;;;;5078819;28;20173;-69
2023/06/11 06:22:56;;;;;;;0.00;0.00;;;21.70;99.90;;;;;;5071685;28;20296;-68
2023/06/11 06:25:24;;;;;;;0.00;0.00;;;21.90;99.90;;;;;;5078546;23;20228;-70
2023/06/11 06:27:50;;;;;;;0.00;0.00;;;22.00;99.90;;;;;;5032888;28;20183;-71
2023/06/11 06:30:16;;;;;;;3.63;1.20;;;22.00;99.90;;;;;;5032315;28;20172;-69
2023/06/11 06:32:43;;;;;;;0.00;0.00;;;21.90;99.90;;;;;;5032251;28;20234;-68
2023/06/11 06:35:08;;;;;;;0.10;0.08;;;21.90;99.90;;;;;;5019934;28;20172;-69
2023/06/11 06:37:34;;;;;;;0.00;0.00;;;22.10;99.90;;;;;;5030750;28;20203;-67
2023/06/11 06:40:00;;;;;;;0.00;0.00;;;22.00;99.90;;;;;;5032386;28;20175;-70
2023/06/11 06:42:25;;;;;;;0.00;0.00;;;22.00;99.90;;;;;;5031661;28;20225;-69
2023/06/11 06:44:51;;;;;;;0.20;0.20;;;22.20;99.90;;;;;;5030574;28;20211;-70
2023/06/11 06:47:17;;;;;;;0.00;0.00;;;22.20;99.90;;;;;;5032027;28;20190;-70
2023/06/11 06:49:42;;;;;;;0.00;0.00;;;22.40;99.90;;;;;;5032197;28;20171;-70
2023/06/11 06:52:11;;;;;;;0.25;0.25;;;22.30;99.90;;;;;;5032158;28;20194;-69
2023/06/11 06:54:38;;;;;;;0.00;0.00;;;22.40;99.90;;;;;;5031881;28;20823;-70
2023/06/11 06:57:05;;;;;;;0.13;0.13;;;22.30;99.90;;;;;;5026172;28;20204;-70
2023/06/11 06:59:30;;;;;;;0.03;0.03;;;22.40;99.90;;;;;;5027592;28;20201;-69
2023/06/11 07:01:56;;;;;;;0.10;0.10;;;22.60;99.90;;;;;;5032063;28;20261;-69
2023/06/11 07:04:22;;;;;;;0.25;0.25;;;22.70;99.90;;;;;;5031355;28;20655;-70
2023/06/11 07:06:47;;;;;;;0.00;0.00;;;22.60;99.90;;;;;;5033110;28;20282;-70
2023/06/11 07:09:13;;;;;;;0.10;0.10;;;22.50;99.90;;;;;;5035887;28;20223;-69
2023/06/11 07:11:38;;;;;;;0.00;0.00;;;22.70;99.90;;;;;;5035780;28;20662;-69
2023/06/11 07:14:04;;;;;;;0.00;0.00;;;22.90;99.90;;;;;;5036141;28;20170;-71
2023/06/11 07:16:30;;;;;;;0.03;0.03;;;23.10;99.90;;;;;;5035540;28;20205;-70
2023/06/11 07:18:55;;;;;;;0.28;0.20;;;23.20;99.90;;;;;;5035787;28;20187;-69
2023/06/11 07:21:23;;;;;;;0.00;0.00;;;23.00;99.90;;;;;;5035842;28;20210;-70
2023/06/11 07:23:48;;;;;;;0.00;0.00;;;23.10;99.90;;;;;;5034865;28;20198;-70
2023/06/11 07:26:15;;;;;;;0.10;0.10;;;23.20;99.90;;;;;;5034829;28;20214;-70
2023/06/11 07:28:41;;;;;;;0.00;0.00;;;23.30;99.90;;;;;;5033883;28;20558;-71
2023/06/11 07:31:07;;;;;;;0.00;0.00;;;23.30;99.90;;;;;;5035171;28;20171;-71
2023/06/11 07:33:33;;;;;;;2.30;0.80;;;23.50;99.90;;;;;;5034630;28;20497;-70
2023/06/11 07:35:59;;;;;;;0.00;0.00;;;23.50;99.90;;;;;;5035678;28;20187;-70
2023/06/11 07:38:25;;;;;;;0.08;0.08;;;23.60;99.90;;;;;;5035880;28;20175;-70
2023/06/11 07:40:52;;;;;;;0.30;0.30;;;23.90;99.90;;;;;;5035769;28;20167;-69
2023/06/11 07:43:18;;;;;;;1.08;0.55;;;24.00;99.90;;;;;;5035170;28;20172;-69
2023/06/11 07:45:43;;;;;;;0.00;0.00;;;24.20;99.90;;;;;;5034937;28;20277;-68
2023/06/11 07:48:10;;;;;;;0.00;0.00;;;23.90;99.90;;;;;;5046394;28;20177;-70
2023/06/11 07:50:37;;;;;;;0.00;0.00;;;23.80;99.90;;;;;;5035644;28;20583;-69
2023/06/11 07:53:03;;;;;;;0.28;0.28;;;24.00;99.90;;;;;;5035396;28;20550;-69
2023/06/11 07:55:29;;;;;;;0.65;0.65;;;24.10;99.90;;;;;;5035083;28;20190;-69
2023/06/11 07:57:55;;;;;;;0.00;0.00;;;24.40;99.90;;;;;;5035406;28;20175;-70
2023/06/11 08:00:21;;;;;;;0.00;0.00;;;24.40;99.90;;;;;;5041822;28;20664;-71
2023/06/11 08:02:46;;;;;;;0.00;0.00;;;24.20;99.90;;;;;;5042518;28;20186;-69
2023/06/11 08:05:17;;;;;;;0.10;0.10;;;24.20;99.90;;;;;;5048336;28;20198;-70
2023/06/11 08:07:44;;;;;;;0.00;0.00;;;24.40;99.90;;;;;;5048627;28;20197;-69
2023/06/11 08:10:10;;;;;;;0.38;0.38;;;24.60;99.90;;;;;;5035267;28;20239;-69
2023/06/11 08:12:36;;;;;;;0.20;0.20;;;24.60;99.90;;;;;;5035421;28;20213;-68
2023/06/11 08:15:02;;;;;;;0.00;0.00;;;24.50;99.90;;;;;;5035232;28;20180;-69
2023/06/11 08:17:27;;;;;;;0.00;0.00;;;24.90;99.90;;;;;;5049099;28;20198;-69
2023/06/11 08:19:53;;;;;;;1.40;0.68;;;24.60;99.90;;;;;;5054091;28;20209;-70
2023/06/11 08:22:19;;;;;;;0.00;0.00;;;;;;;;;;5054229;28;20210;-69
2023/06/11 08:24:44;;;;;;;0.00;0.00;;;25.20;99.90;;;;;;5047252;28;20195;-69
2023/06/11 08:27:12;;;;;;;0.00;0.00;;;24.90;99.90;;;;;;5046733;28;20697;-68
2023/06/11 08:29:37;;;;;;;0.10;0.10;;;25.00;99.90;;;;;;5042388;28;20162;-68
2023/06/11 08:32:03;;;;;;;0.00;0.00;;;25.10;99.90;;;;;;5054989;28;20163;-68
2023/06/11 08:34:29;;;;;;;0.00;0.00;;;25.20;99.90;;;;;;5046284;28;20171;-69
2023/06/11 08:36:56;;;;;;;0.00;0.00;;;25.50;99.90;;;;;;5046648;28;20194;-68
2023/06/11 08:39:22;;;;;;;0.20;0.20;;;25.30;99.90;;;;;;5041661;28;20220;-69
2023/06/11 08:41:47;;;;;;;0.00;0.00;;;25.40;99.90;;;;;;5041044;28;20254;-70
2023/06/11 08:44:13;;;;;;;0.08;0.08;;;25.30;99.90;;;;;;5014738;28;20198;-68
2023/06/11 08:46:42;;;;;;;0.28;0.28;;;25.50;99.90;;;;;;5040969;28;20202;-69
2023/06/11 08:49:13;;;;;;;0.20;0.20;;;25.60;99.90;;;;;;5034647;28;20684;-70
2023/06/11 08:51:39;;;;;;;0.00;0.00;;;25.80;99.90;;;;;;5049387;28;20191;-68
2023/06/11 08:54:09;;;;;;;0.10;0.10;;;26.00;99.90;;;;;;5054183;28;20166;-68
2023/06/11 08:56:35;;;;;;;0.10;0.10;;;25.80;99.90;;;;;;5038766;28;20222;-69
2023/06/11 08:59:01;;;;;;;1.05;1.05;;;25.70;99.90;;;;;;5043412;28;20174;-69
2023/06/11 09:01:28;;;;;;;0.00;0.00;;;25.60;99.90;;;;;;5054377;28;20225;-67
2023/06/11 09:03:54;;;;;;;0.00;0.00;;;25.90;99.90;;;;;;5054028;28;20280;-70
2023/06/11 09:06:20;;;;;;;0.30;0.30;;;25.80;99.90;;;;;;5051357;28;20274;-68
2023/06/11 09:09:00;;;;;;;0.00;0.00;;;25.80;99.90;;;;;;5033858;28;20171;-68
2023/06/11 09:11:35;;;;;;;0.00;0.00;;;25.90;99.90;;;;;;5046918;28;20179;-68
2023/06/11 09:14:02;;;;;;;0.10;0.10;;;26.00;99.90;;;;;;5033903;28;20202;-67
2023/06/11 09:16:29;;;;;;;0.00;0.00;;;26.10;99.90;;;;;;5052757;28;20194;-68
2023/06/11 09:18:58;;;;;;;0.00;0.00;;;26.20;99.90;;;;;;5041091;28;20183;-69
2023/06/11 09:21:24;;;;;;;4.80;0.43;;;26.20;99.90;;;;;;5047551;28;20179;-67
2023/06/11 09:23:50;;;;;;;1.30;1.20;;;26.50;99.90;;;;;;5033704;28;20187;-68
2023/06/11 09:26:17;;;;;;;0.00;0.00;;;26.50;99.90;;;;;;5053435;28;20592;-69
2023/06/11 09:28:43;;;;;;;0.10;0.10;;;26.00;99.90;;;;;;5053942;28;20174;-68
2023/06/11 09:31:08;;;;;;;0.13;0.13;;;26.50;99.90;;;;;;5032853;28;20557;-66
2023/06/11 09:33:36;;;;;;;0.00;0.00;;;26.30;99.90;;;;;;5033842;28;20229;-69
2023/06/11 09:36:02;;;;;;;0.00;0.00;;;26.40;99.90;;;;;;5033448;28;20191;-70
2023/06/11 09:38:30;;;;;;;0.00;0.00;;;26.50;99.90;;;;;;5046596;28;20181;-69
2023/06/11 09:40:56;;;;;;;0.00;0.00;;;26.80;99.90;;;;;;5047386;28;20570;-69
2023/06/11 09:43:23;;;;;;;0.10;0.10;;;26.60;99.90;;;;;;5033100;28;20636;-66
2023/06/11 09:45:52;;;;;;;0.00;0.00;;;26.90;99.90;;;;;;5039717;28;20605;-69
2023/06/11 09:48:19;;;;;;;0.10;0.10;;;26.90;99.90;;;;;;5039603;28;20195;-68
2023/06/11 09:50:48;;;;;;;0.00;0.00;;;26.80;99.90;;;;;;5033492;28;20186;-69
2023/06/11 09:53:14;;;;;;;0.73;0.22;;;27.40;99.90;;;;;;5046397;28;20197;-68
2023/06/11 09:55:41;;;;;;;0.00;0.00;;;27.60;99.90;;;;;;5040369;28;20193;-68
2023/06/11 09:58:06;;;;;;;0.00;0.00;;;27.70;99.90;;;;;;5038473;28;20178;-68
2023/06/11 10:00:34;;;;;;;0.00;0.00;;;27.50;99.90;;;;;;5045347;28;20176;-69
2023/06/11 10:03:00;;;;;;;0.00;0.00;;;27.30;99.90;;;;;;5033418;28;20174;-68
2023/06/11 10:05:27;;;;;;;0.28;0.28;;;27.20;99.90;;;;;;5032891;28;20441;-69
2023/06/11 10:08:06;;;;;;;0.00;0.00;;;27.70;99.90;;;;;;5034346;28;20175;-68
2023/06/11 10:10:38;;;;;;;1.75;0.63;;;27.50;99.90;;;;;;5052729;28;20249;-69
2023/06/11 10:13:04;;;;;;;0.00;0.00;;;27.30;99.40;;;;;;5039328;28;20519;-68
2023/06/11 10:15:31;;;;;;;0.88;0.20;;;27.60;99.90;;;;;;5041415;28;20179;-68
2023/06/11 10:17:58;;;;;;;0.00;0.00;;;27.30;99.40;;;;;;5037175;28;20527;-69
2023/06/11 10:20:31;;;;;;;0.15;0.15;;;27.80;99.90;;;;;;5041443;28;20580;-68
2023/06/11 10:23:09;;;;;;;0.30;0.30;;;27.60;99.10;;;;;;5038409;28;20178;-68
2023/06/11 10:25:41;;;;;;;0.00;0.00;;;27.50;99.90;;;;;;5037820;28;20214;-66
2023/06/11 10:28:09;;;;;;;0.00;0.00;;;27.40;98.70;;;;;;5039183;28;20194;-68
2023/06/11 10:30:35;;;;;;;0.00;0.00;;;27.50;98.70;;;;;;5037904;28;20186;-68
2023/06/11 10:33:01;;;;;;;0.00;0.00;;;27.60;98.80;;;;;;5041035;28;20739;-67
2023/06/11 10:35:36;;;;;;;0.10;0.10;;;27.90;95.20;;;;;;5037593;28;20582;-69
2023/06/11 10:38:07;;;;;;;0.00;0.00;;;28.20;94.20;;;;;;5032974;28;20217;-68
2023/06/11 10:40:34;;;;;;;0.20;0.20;;;28.30;91.20;;;;;;5049595;28;20538;-69
2023/06/11 10:43:00;;;;;;;0.20;0.20;;;28.40;90.60;;;;;;5042751;28;20167;-67
2023/06/11 10:45:35;;;;;;;0.32;0.32;;;28.80;93.00;;;;;;5032460;28;20245;-69
2023/06/11 10:48:01;;;;;;;0.10;0.10;;;28.70;90.10;;;;;;5033516;28;20190;-68
2023/06/11 10:50:31;;;;;;;0.10;0.10;;;28.50;86.90;;;;;;5045786;28;20207;-68
2023/06/11 10:52:59;;;;;;;0.00;0.00;;;28.40;87.10;;;;;;5031981;28;20222;-68
2023/06/11 10:55:29;;;;;;;0.00;0.00;;;28.40;84.50;;;;;;5032569;28;20654;-67
2023/06/11 10:57:55;;;;;;;0.00;0.00;;;28.30;82.90;;;;;;5044835;28;20230;-69
2023/06/11 11:00:22;;;;;;;0.10;0.10;;;28.30;86.70;;;;;;5047235;28;20715;-67
2023/06/11 11:02:48;;;;;;;0.00;0.00;;;28.10;84.00;;;;;;5045169;28;20171;-68
2023/06/11 11:05:14;;;;;;;0.20;0.20;;;28.10;80.00;;;;;;5051726;28;20205;-68
2023/06/11 11:07:44;;;;;;;0.13;0.13;;;28.30;81.30;;;;;;5040058;28;20258;-67
2023/06/11 11:10:11;;;;;;;0.00;0.00;;;28.90;80.10;;;;;;5045542;28;20736;-67
2023/06/11 11:12:45;;;;;;;0.00;0.00;;;28.80;77.50;;;;;;5031103;28;20167;-67
2023/06/11 11:15:13;;;;;;;0.00;0.00;;;29.20;76.70;;;;;;5028388;28;20163;-66
2023/06/11 11:17:40;;;;;;;0.00;0.00;;;29.10;72.50;;;;;;5035760;28;20546;-68
2023/06/11 11:20:14;;;;;;;0.10;0.10;;;29.10;73.10;;;;;;5040835;28;20170;-70
2023/06/11 11:22:40;;;;;;;0.00;0.00;;;29.40;68.90;;;;;;5038659;28;20171;-66
2023/06/11 11:25:06;;;;;;;0.00;0.00;;;29.10;77.10;;;;;;5052293;28;20210;-68
2023/06/11 11:27:34;;;;;;;0.10;0.10;;;29.00;71.60;;;;;;5052044;28;20213;-69
2023/06/11 11:30:02;;;;;;;0.00;0.00;;;29.00;68.40;;;;;;5042568;28;20171;-67
2023/06/11 11:32:33;;;;;;;0.00;0.00;;;28.80;70.70;;;;;;5045801;28;20191;-67
2023/06/11 11:35:00;;;;;;;0.00;0.00;;;28.90;70.00;;;;;;5032491;28;20594;-70
2023/06/11 11:37:28;;;;;;;0.08;0.08;;;28.90;73.70;;;;;;5031878;28;20198;-69
2023/06/11 11:39:54;;;;;;;0.00;0.00;;;28.90;72.80;;;;;;5044474;28;20585;-68
2023/06/11 11:42:22;;;;;;;0.03;0.03;;;29.20;71.10;;;;;;5046664;28;20171;-68
2023/06/11 11:44:50;;;;;;;0.00;0.00;;;29.40;68.90;;;;;;5031660;28;20349;-69
2023/06/11 11:47:20;;;;;;;0.05;0.05;;;29.40;62.50;;;;;;5049683;28;20206;-68
2023/06/11 11:49:57;;;;;;;2.63;1.10;;;29.60;63.90;;;;;;5045308;28;20202;-69
2023/06/11 11:52:23;;;;;;;0.00;0.00;;;30.10;58.40;;;;;;5020209;28;20217;-68
2023/06/11 11:54:49;;;;;;;0.38;0.38;;;29.80;53.20;;;;;;5035816;28;20579;-69
2023/06/11 11:57:19;;;;;;;0.00;0.00;;;29.80;53.60;;;;;;5056684;28;20324;-66
2023/06/11 11:59:45;;;;;;;0.00;0.00;;;29.60;54.80;;;;;;5043104;28;20179;-69
2023/06/11 12:02:11;;;;;;;0.00;0.00;;;29.40;55.60;;;;;;5038431;28;20175;-67
2023/06/11 12:04:42;;;;;;;0.30;0.30;;;29.90;56.70;;;;;;5039251;28;20602;-68
2023/06/11 12:07:14;;;;;;;0.00;0.00;;;29.40;56.10;;;;;;5057230;28;20190;-68
2023/06/11 12:09:41;;;;;;;0.00;0.00;;;30.00;54.30;;;;;;5038576;28;20175;-69
2023/06/11 12:12:08;;;;;;;0.00;0.00;;;29.80;52.00;;;;;;5035853;28;20175;-67
2023/06/11 12:14:34;;;;;;;0.00;0.00;;;30.00;50.60;;;;;;5035791;28;20179;-67
2023/06/11 12:17:00;;;;;;;0.00;0.00;;;30.20;49.20;;;;;;5036018;28;20207;-70
2023/06/11 12:19:29;;;;;;;0.00;0.00;;;30.20;52.20;;;;;;5041737;28;20237;-69
2023/06/11 12:21:58;;;;;;;0.00;0.00;;;30.30;50.10;;;;;;5035128;28;20195;-69
2023/06/11 12:24:24;;;;;;;0.05;0.05;;;30.50;49.90;;;;;;5033934;28;20195;-68
2023/06/11 12:26:50;;;;;;;0.00;0.00;;;30.80;48.80;;;;;;5024060;23;20228;-68
2023/06/11 12:29:17;;;;;;;0.10;0.10;;;31.20;47.80;;;;;;5008617;28;20506;-68
2023/06/11 12:31:45;;;;;;;0.00;0.00;;;30.70;48.60;;;;;;4994533;28;20188;-68
2023/06/11 12:34:14;;;;;;;0.00;0.00;;;30.80;49.10;;;;;;4977259;28;20176;-68
2023/06/11 12:36:43;;;;;;;0.00;0.00;;;30.60;49.70;;;;;;4995632;28;20204;-69
2023/06/11 12:39:10;;;;;;;0.05;0.05;;;30.70;49.40;;;;;;4995343;28;20255;-69
2023/06/11 12:41:35;;;;;;;0.00;0.00;;;31.00;49.20;;;;;;4995301;28;20180;-68
2023/06/11 12:44:01;;;;;;;0.00;0.00;;;31.30;49.80;;;;;;4994305;28;20208;-68
2023/06/11 12:46:27;;;;;;;0.00;0.00;;;31.10;48.30;;;;;;4994329;28;20335;-69